< Cyclone 198307 1984 Season Cyclone 198402 >
Cyclone 198401 (OSCAR)
General InformationTrack Information on Google MapsList of All Images || ResourceGoogle EarthGE AnimationAtom FeedGeoJSON
Detalied Best Track (Time Zone = UTC)
Year Month Day Hour Lat. Long. Pressure (hPa) Wind (kt) Class Image Chart
1983 10 22 00 -7.5 88.6 1002 0 0 Image --
1983 10 22 06 -7.6 88.4 1002 0 0 Image --
1983 10 22 12 -7.7 88.2 1002 0 0 Image --
1983 10 22 18 -8.0 88.0 1002 0 0 Image --
1983 10 23 00 -8.3 88.2 1000 0 0 Image --
1983 10 23 06 -8.7 88.3 1000 0 0 Image --
1983 10 23 12 -8.9 88.2 1002 0 0 Image --
1983 10 23 18 -8.9 88.0 1001 0 0 Image --
1983 10 24 00 -8.9 87.8 998 0 0 Image --
1983 10 24 03 -8.9 87.6 998 0 0 Image --
1983 10 24 06 -8.9 87.4 994 0 0 Image --
1983 10 24 12 -9.0 86.3 990 0 0 Image --
1983 10 24 18 -9.1 84.9 990 0 0 Image --
1983 10 25 00 -9.8 85.6 990 0 0 Image --
1983 10 25 06 -10.1 86.4 990 0 0 Image --
1983 10 25 12 -10.2 87.4 990 0 0 Image --
1983 10 25 18 -10.9 87.9 990 0 0 Image --
1983 10 26 00 -11.7 88.1 990 0 0 Image --
1983 10 26 06 -12.7 87.8 986 0 0 Image --
1983 10 26 12 -12.8 87.2 986 0 0 Image --
1983 10 26 18 -12.7 86.6 986 0 0 Image --
1983 10 27 00 -13.0 86.6 986 0 0 Image --
1983 10 27 06 -13.4 86.6 983 0 0 Image --
1983 10 27 12 -13.7 86.7 980 0 0 Image --
1983 10 27 18 -14.0 86.8 974 0 0 Image --
1983 10 28 00 -14.1 87.1 970 0 0 Image --
1983 10 28 06 -14.6 88.1 970 0 0 Image --
1983 10 28 12 -15.5 89.0 968 0 0 Image --
1983 10 28 18 -16.2 89.3 968 0 0 Image --
1983 10 29 00 -17.4 90.0 972 0 0 Image --
1983 10 29 06 -18.4 90.1 972 0 0 Image --
1983 10 29 12 -19.4 90.5 986 0 0 Image --
1983 10 29 18 -20.3 91.4 998 0 0 Image --
1983 10 30 00 -21.2 91.4 1002 0 0 Image --
1983 10 30 06 -23.2 92.7 1004 0 0 Image --
1983 10 30 09 -23.2 94.0 1004 0 0 Image --
1983 10 30 12 -24.2 95.2 1006 0 0 Image --
1983 10 30 18 -26.2 96.1 1008 0 0 Image --
1983 10 31 00 -27.2 96.4 1012 0 0 Image --
1983 10 31 06 -28.0 97.1 1012 0 0 Image --
1983 10 31 12 -29.7 97.7 1014 0 0 Image --
1983 10 31 18 -29.3 98.4 1014 0 0 Image --
1983 11 1 00 -29.5 99.0 1014 0 0 Image --
< Cyclone 198307 1984 Season Cyclone 198402 >

Help